Ames, Iowa
Current Conditions -  °F | °C
As of 3:53 AM on Thursday 23 Oct 2014 (Local Time) from KAMW Reporting Station
Broken Clouds Broken Clouds  
Wind Chill: 51°   Ceiling: 9500
Heat Index: 51°   Visibility: 10mi
Dew Point: 48°   Wind: 7mph
Humidity: 89%   Direction: 150°SSE
Pressure: 30.05"   Gusts: NA
Location:  42.03°N, 93.62°W
Report Text: KAMW 230853Z AUTO 15006KT 10SM BKN095 11/09 A3005 RMK AO2 RAE25 SLP173 P0001 60032 T01060089 58007
Loading
Personal Weather Stations






























Interactive Weather Map
Tropical Storm Tracking
New forecast layout! Learn more

10-Day Weather Forecast

Advertisements
Track Severe Weather on mobile